Time;durP1;ratioP1;P1;durP2;ratioP2;P2;SDS_P1;SDS_P2;PMS_P1;PMS_P2;Temp;Humidity;BMP_temperature;BMP_pressure;BME280_temperature;BME280_humidity;BME280_pressure;Samples;Min_cycle;Max_cycle;Signal;HPM_P1;HPM_P2
2023/01/15 00:01:21;;;;;;;3.08;1.20;;;6.50;99.90;;;;;;5072167;28;20359;-87
2023/01/15 00:03:48;;;;;;;5.30;1.40;;;6.00;99.90;;;;;;5071209;28;20052;-86
2023/01/15 00:06:14;;;;;;;8.82;1.40;;;5.90;99.90;;;;;;5038781;28;20460;-86
2023/01/15 00:08:40;;;;;;;7.32;1.60;;;6.00;99.90;;;;;;5071442;28;20486;-87
2023/01/15 00:11:06;;;;;;;4.72;1.20;;;6.00;99.90;;;;;;5038081;28;20059;-86
2023/01/15 00:13:32;;;;;;;;;;;5.90;99.90;;;;;;5072355;28;20371;-86
2023/01/15 00:16:07;;;;;;;8.48;1.40;;;6.00;99.90;;;;;;5071296;28;19943;-86
2023/01/15 00:18:33;;;;;;;3.67;1.25;;;6.00;99.90;;;;;;5071722;28;20037;-86
2023/01/15 00:21:00;;;;;;;2.60;1.25;;;6.00;99.90;;;;;;5071203;28;20390;-86
2023/01/15 00:29:00;;;;;;;6.38;1.52;;;6.60;99.90;;;;;;5071155;28;20110;-85
2023/01/15 00:31:27;;;;;;;5.22;1.20;;;6.00;99.90;;;;;;5054749;28;20044;-86
2023/01/15 00:33:53;;;;;;;4.32;1.20;;;6.30;99.90;;;;;;5054096;28;20071;-86
2023/01/15 00:36:19;;;;;;;6.35;1.40;;;6.00;99.90;;;;;;5054589;28;20041;-86
2023/01/15 00:38:44;;;;;;;4.78;1.10;;;6.10;99.90;;;;;;5053980;28;20170;-89
2023/01/15 00:41:10;;;;;;;10.95;1.98;;;6.70;99.90;;;;;;5071093;28;20127;-88
2023/01/15 00:43:36;;;;;;;3.92;1.20;;;6.00;99.90;;;;;;5071130;28;20078;-87
2023/01/15 00:46:03;;;;;;;7.65;1.50;;;6.00;99.90;;;;;;5054446;28;20508;-85
2023/01/15 00:48:29;;;;;;;10.35;1.40;;;6.00;99.90;;;;;;5054433;28;20109;-87
2023/01/15 00:50:55;;;;;;;7.82;1.40;;;6.70;99.90;;;;;;5070721;28;20048;-88
2023/01/15 00:53:21;;;;;;;11.65;1.25;;;6.10;99.90;;;;;;5070672;28;20543;-86
2023/01/15 00:55:46;;;;;;;9.98;1.50;;;6.00;99.90;;;;;;5070837;28;20052;-88
2023/01/15 00:58:12;;;;;;;5.25;1.58;;;6.00;99.90;;;;;;5071178;28;20473;-86
2023/01/15 01:00:38;;;;;;;9.23;1.25;;;6.00;99.90;;;;;;5071252;28;20044;-86
2023/01/15 01:03:03;;;;;;;4.97;1.13;;;6.00;99.90;;;;;;5053377;28;20041;-86
2023/01/15 01:05:31;;;;;;;5.60;1.10;;;6.10;99.90;;;;;;5071055;28;20049;-86
2023/01/15 01:07:58;;;;;;;6.47;1.50;;;6.00;99.90;;;;;;5070462;28;20052;-86
2023/01/15 01:10:24;;;;;;;5.60;1.33;;;6.00;99.90;;;;;;5070680;28;20097;-86
2023/01/15 01:12:51;;;;;;;6.47;1.40;;;6.50;99.90;;;;;;5070325;28;20477;-87
2023/01/15 01:15:21;;;;;;;6.93;1.55;;;6.70;99.90;;;;;;5054518;28;20052;-86
2023/01/15 01:17:47;;;;;;;5.68;1.10;;;6.00;99.90;;;;;;5070468;28;20048;-88
2023/01/15 01:20:14;;;;;;;;;;;5.90;99.90;;;;;;5071411;28;20059;-87
2023/01/15 01:22:40;;;;;;;10.33;3.10;;;6.00;99.90;;;;;;5070499;28;19927;-86
2023/01/15 01:25:06;;;;;;;;;;;6.10;99.90;;;;;;5069836;28;20376;-86
2023/01/15 01:27:32;;;;;;;10.43;1.38;;;5.90;99.90;;;;;;5070756;28;19920;-86
2023/01/15 01:29:57;;;;;;;8.40;1.55;;;6.00;99.90;;;;;;5070480;28;20041;-86
2023/01/15 01:32:23;;;;;;;7.18;1.50;;;6.40;99.90;;;;;;5070669;28;20478;-87
2023/01/15 01:34:49;;;;;;;4.07;1.30;;;5.90;99.90;;;;;;5070407;28;20052;-88
2023/01/15 01:37:15;;;;;;;8.27;1.98;;;6.40;99.90;;;;;;5053581;28;20094;-86
2023/01/15 01:39:40;;;;;;;8.75;2.08;;;5.90;99.90;;;;;;5053496;28;20048;-87
2023/01/15 01:42:15;;;;;;;8.07;1.77;;;6.20;99.90;;;;;;5053535;28;20044;-86
2023/01/15 01:44:43;;;;;;;14.93;1.90;;;5.90;99.90;;;;;;5070753;28;20367;-87
2023/01/15 01:47:17;;;;;;;6.97;1.60;;;6.00;99.90;;;;;;5070104;28;20036;-86
2023/01/15 01:49:46;;;;;;;6.25;2.70;;;6.60;99.90;;;;;;5070707;28;20080;-86
2023/01/15 01:52:24;;;;;;;9.55;1.60;;;5.90;99.90;;;;;;5073626;28;20123;-87
2023/01/15 01:54:50;;;;;;;8.48;1.48;;;5.90;99.90;;;;;;5074094;28;20127;-88
2023/01/15 01:57:18;;;;;;;8.27;1.55;;;6.70;99.90;;;;;;5074167;28;20044;-86
2023/01/15 01:59:45;;;;;;;10.65;1.52;;;5.90;99.90;;;;;;5074391;28;20045;-86
2023/01/15 02:02:12;;;;;;;9.63;1.77;;;5.90;99.90;;;;;;5073909;28;20044;-87
2023/01/15 02:04:39;;;;;;;7.32;2.30;;;5.90;99.90;;;;;;5074417;28;20088;-86
2023/01/15 02:07:05;;;;;;;4.38;1.40;;;5.90;99.90;;;;;;5073514;28;20498;-86
2023/01/15 02:09:32;;;;;;;5.05;1.40;;;5.90;99.90;;;;;;5073993;28;20052;-87
2023/01/15 02:12:13;;;;;;;8.15;1.13;;;5.90;99.90;;;;;;5057160;28;20048;-86
2023/01/15 02:14:49;;;;;;;6.43;1.35;;;5.90;99.90;;;;;;5074111;28;20477;-86
2023/01/15 02:17:19;;;;;;;;;;;5.90;99.90;;;;;;5074254;28;20047;-87
2023/01/15 02:20:24;;;;;;;8.32;1.40;;;6.10;99.90;;;;;;5057558;28;19924;-86
2023/01/15 02:22:50;;;;;;;7.80;0.98;;;5.90;99.90;;;;;;4979842;28;20146;-87
2023/01/15 02:25:52;;;;;;;5.93;1.27;;;5.90;99.90;;;;;;4995487;28;20058;-87
2023/01/15 02:28:22;;;;;;;6.07;1.95;;;6.00;99.90;;;;;;5050763;28;20059;-87
2023/01/15 02:30:56;;;;;;;11.82;2.25;;;6.30;99.90;;;;;;5074088;28;20452;-87
2023/01/15 02:33:35;;;;;;;13.65;1.77;;;5.90;99.90;;;;;;5073732;28;20052;-87
2023/01/15 02:36:05;;;;;;;13.75;1.85;;;5.90;99.90;;;;;;5055991;28;20489;-87
2023/01/15 02:38:38;;;;;;;7.93;1.73;;;5.90;99.90;;;;;;5073449;28;20098;-86
2023/01/15 02:41:05;;;;;;;13.35;2.33;;;5.90;99.90;;;;;;5073382;28;20044;-87
2023/01/15 02:43:37;;;;;;;8.77;1.33;;;6.50;99.90;;;;;;5056885;28;20045;-87
2023/01/15 02:46:05;;;;;;;4.70;1.27;;;6.00;99.90;;;;;;5056637;28;20393;-87
2023/01/15 02:48:34;;;;;;;18.52;2.53;;;5.80;99.90;;;;;;5073162;28;20048;-87
2023/01/15 02:51:14;;;;;;;5.80;1.67;;;5.90;99.90;;;;;;5073027;28;20045;-87
2023/01/15 02:53:44;;;;;;;11.30;1.73;;;5.80;99.90;;;;;;5073345;28;20127;-87
2023/01/15 02:56:14;;;;;;;9.77;1.50;;;5.80;99.90;;;;;;5073121;28;20044;-87
2023/01/15 02:58:42;;;;;;;7.45;1.75;;;5.90;99.90;;;;;;5073660;28;20052;-87
2023/01/15 03:01:20;;;;;;;5.93;1.50;;;5.90;99.90;;;;;;5072808;28;20096;-87
2023/01/15 03:03:56;;;;;;;13.75;2.28;;;5.90;99.90;;;;;;5073262;28;20117;-87
2023/01/15 03:06:31;;;;;;;8.02;2.03;;;6.40;99.90;;;;;;5073312;28;20080;-87
2023/01/15 03:08:57;;;;;;;9.93;1.40;;;6.50;99.90;;;;;;5072363;28;20060;-87
2023/01/15 03:11:23;;;;;;;;;;;5.80;99.90;;;;;;5073683;28;20063;-86
2023/01/15 03:14:03;;;;;;;8.70;1.40;;;5.90;99.90;;;;;;5073345;28;19920;-87
2023/01/15 03:16:56;;;;;;;11.13;1.55;;;5.80;99.90;;;;;;5072938;28;20136;-87
2023/01/15 03:20:01;;;;;;;6.82;1.15;;;5.80;99.90;;;;;;5073229;28;20051;-87
2023/01/15 03:22:32;;;;;;;7.10;1.30;;;5.80;99.90;;;;;;4995281;28;20538;-87
2023/01/15 03:25:10;;;;;;;7.35;1.73;;;6.00;99.90;;;;;;5060752;28;20083;-87
2023/01/15 03:27:36;;;;;;;10.68;1.38;;;5.80;99.90;;;;;;5072913;28;20079;-87
2023/01/15 03:30:12;;;;;;;3.85;1.13;;;5.80;99.90;;;;;;5072364;28;20037;-87
2023/01/15 03:32:39;;;;;;;6.90;1.50;;;5.80;99.90;;;;;;5072578;28;20481;-87
2023/01/15 03:35:05;;;;;;;;;;;5.80;99.90;;;;;;5072512;28;20406;-86
2023/01/15 03:37:31;;;;;;;10.43;1.45;;;5.80;99.90;;;;;;5072656;28;20396;-87
2023/01/15 03:39:58;;;;;;;10.55;2.10;;;5.80;99.90;;;;;;5055471;28;20105;-89
2023/01/15 03:42:42;;;;;;;9.32;1.75;;;6.00;99.90;;;;;;5072626;28;20045;-86
2023/01/15 03:45:21;;;;;;;5.20;1.30;;;5.80;99.90;;;;;;5055623;28;20056;-87
2023/01/15 03:48:25;;;;;;;5.05;1.77;;;5.80;99.90;;;;;;5072528;28;20139;-87
2023/01/15 03:51:05;;;;;;;6.90;1.55;;;5.80;99.90;;;;;;5072416;28;20571;-87
2023/01/15 03:53:54;;;;;;;7.65;1.17;;;5.80;99.90;;;;;;5071891;28;20052;-87
2023/01/15 03:56:37;;;;;;;5.60;1.70;;;5.80;99.90;;;;;;5071985;28;20097;-87
2023/01/15 03:59:32;;;;;;;6.95;1.80;;;5.80;99.90;;;;;;5072195;28;20094;-87
2023/01/15 04:02:00;;;;;;;6.07;1.42;;;5.80;99.90;;;;;;5070320;28;20053;-88
2023/01/15 04:04:27;;;;;;;7.80;2.03;;;5.80;99.90;;;;;;5071878;28;20048;-87
2023/01/15 04:06:54;;;;;;;16.83;1.67;;;6.20;99.90;;;;;;5071968;28;20049;-87
2023/01/15 04:09:20;;;;;;;9.05;2.05;;;5.80;99.90;;;;;;5071127;28;20146;-87
2023/01/15 04:11:46;;;;;;;10.35;1.70;;;6.50;99.90;;;;;;5055531;28;20187;-87
2023/01/15 04:14:13;;;;;;;15.07;1.83;;;5.70;99.90;;;;;;5071396;28;20041;-87
2023/01/15 04:16:40;;;;;;;13.45;1.40;;;5.70;99.90;;;;;;5055155;28;20056;-86
2023/01/15 04:19:05;;;;;;;;;;;5.70;99.90;;;;;;5072212;28;20407;-88
2023/01/15 04:21:31;;;;;;;5.35;1.55;;;5.70;99.90;;;;;;5071482;28;19920;-88
2023/01/15 04:23:57;;;;;;;8.73;1.65;;;6.10;99.90;;;;;;5071019;28;20064;-87
2023/01/15 04:26:22;;;;;;;6.70;1.40;;;6.10;99.90;;;;;;5071380;28;20055;-87
2023/01/15 04:28:48;;;;;;;7.72;1.90;;;5.70;99.90;;;;;;5055245;28;20067;-87
2023/01/15 04:31:14;;;;;;;6.03;1.45;;;5.70;99.90;;;;;;5071252;28;20063;-88
2023/01/15 04:33:40;;;;;;;9.25;2.03;;;5.70;99.90;;;;;;5054709;28;20040;-87
2023/01/15 04:36:07;;;;;;;6.47;1.45;;;5.70;99.90;;;;;;5054173;28;20040;-87
2023/01/15 04:38:33;;;;;;;16.35;2.30;;;5.70;99.90;;;;;;5054646;28;20051;-87
2023/01/15 04:46:29;;;;;;;9.85;1.17;;;5.80;99.90;;;;;;5071385;28;20063;-87
2023/01/15 04:48:54;;;;;;;3.53;1.33;;;5.70;99.90;;;;;;5071197;28;20056;-87
2023/01/15 04:51:20;;;;;;;9.63;2.03;;;5.80;99.90;;;;;;5070952;28;20036;-88
2023/01/15 04:53:46;;;;;;;8.35;1.67;;;6.30;99.90;;;;;;5054280;28;20052;-87
2023/01/15 04:56:11;;;;;;;4.60;1.10;;;5.70;99.90;;;;;;5037795;28;20045;-88
2023/01/15 04:58:37;;;;;;;5.75;2.08;;;5.70;99.90;;;;;;5054696;28;20051;-87
2023/01/15 05:01:10;;;;;;;5.60;1.20;;;5.70;99.90;;;;;;5054497;28;20084;-88
2023/01/15 05:03:35;;;;;;;7.18;1.55;;;6.20;99.90;;;;;;5070836;28;20638;-87
2023/01/15 05:06:02;;;;;;;8.43;1.88;;;6.30;99.90;;;;;;5054388;28;20049;-87
2023/01/15 05:08:28;;;;;;;13.77;1.30;;;5.70;99.90;;;;;;5070437;28;20040;-88
2023/01/15 05:10:54;;;;;;;4.13;1.70;;;5.70;99.90;;;;;;5070999;28;20043;-87
2023/01/15 05:13:19;;;;;;;4.13;1.30;;;5.90;99.90;;;;;;5054066;28;20044;-87
2023/01/15 05:15:47;;;;;;;10.85;1.63;;;5.70;99.90;;;;;;5071186;28;20043;-87
2023/01/15 05:18:14;;;;;;;10.18;1.15;;;5.60;99.90;;;;;;5054115;28;20048;-87
2023/01/15 05:20:43;;;;;;;15.60;1.80;;;5.70;99.90;;;;;;5054494;28;20058;-87
2023/01/15 05:23:08;;;;;;;10.00;1.30;;;5.60;99.90;;;;;;5070037;28;20041;-88
2023/01/15 05:25:37;;;;;;;7.85;1.77;;;6.30;99.90;;;;;;5069409;28;20063;-88
2023/01/15 05:28:06;;;;;;;4.60;1.30;;;5.60;99.90;;;;;;5070542;28;20052;-87
2023/01/15 05:30:31;;;;;;;9.40;1.25;;;5.60;99.90;;;;;;5070640;28;20051;-87
2023/01/15 05:32:57;;;;;;;5.93;1.70;;;5.60;99.90;;;;;;5053288;28;20044;-87
2023/01/15 05:35:22;;;;;;;9.45;1.40;;;5.60;99.90;;;;;;5053821;28;20048;-88
2023/01/15 05:37:48;;;;;;;12.70;1.67;;;5.50;99.90;;;;;;5070633;28;20041;-87
2023/01/15 05:40:14;;;;;;;9.10;1.27;;;5.50;99.90;;;;;;5070155;28;20662;-88
2023/01/15 05:42:39;;;;;;;9.45;1.83;;;5.50;99.90;;;;;;5069772;28;20076;-87
2023/01/15 05:45:06;;;;;;;7.88;0.88;;;5.60;99.90;;;;;;5070443;28;20040;-90
2023/01/15 05:47:34;;;;;;;;;;;5.50;99.90;;;;;;5037356;28;20045;-89
2023/01/15 05:50:00;;;;;;;7.68;1.23;;;5.50;99.90;;;;;;5070426;28;19920;-88
2023/01/15 05:52:25;;;;;;;7.68;1.45;;;5.50;99.90;;;;;;5053051;28;20046;-89
2023/01/15 05:54:51;;;;;;;10.25;1.30;;;5.50;99.90;;;;;;5053159;28;20087;-89
2023/01/15 05:57:17;;;;;;;6.72;1.38;;;5.60;99.90;;;;;;5052870;28;20053;-89
2023/01/15 05:59:42;;;;;;;2.47;0.80;;;5.50;99.90;;;;;;5053591;28;20059;-88
2023/01/15 06:02:08;;;;;;;5.82;2.25;;;5.60;99.90;;;;;;5069309;28;20079;-89
2023/01/15 06:04:34;;;;;;;8.45;1.13;;;5.50;99.90;;;;;;5052573;28;20079;-89
2023/01/15 06:07:00;;;;;;;5.85;0.90;;;5.50;99.90;;;;;;5069438;28;20059;-88
2023/01/15 06:09:28;;;;;;;4.13;1.08;;;5.40;99.90;;;;;;5069014;28;20048;-89
2023/01/15 06:11:54;;;;;;;7.20;1.42;;;5.50;99.90;;;;;;5069636;28;20178;-88
2023/01/15 06:14:20;;;;;;;5.93;1.42;;;5.40;99.90;;;;;;5035740;28;20495;-88
2023/01/15 06:16:46;;;;;;;4.45;1.40;;;6.10;99.90;;;;;;5069604;28;20086;-89
2023/01/15 06:19:12;;;;;;;6.03;1.40;;;6.00;99.90;;;;;;5069466;28;20037;-88
2023/01/15 06:21:39;;;;;;;10.57;1.27;;;5.50;99.90;;;;;;5053006;28;20052;-88
2023/01/15 06:24:05;;;;;;;5.45;1.52;;;5.20;99.90;;;;;;5052244;28;20118;-88
2023/01/15 06:26:31;;;;;;;;;;;5.20;99.90;;;;;;5037048;28;20078;-88
2023/01/15 06:28:57;;;;;;;7.88;1.58;;;5.20;99.90;;;;;;5070186;28;19921;-87
2023/01/15 06:31:23;;;;;;;7.78;1.25;;;5.30;99.90;;;;;;5069895;28;20052;-87
2023/01/15 06:33:49;;;;;;;24.13;1.67;;;5.70;99.90;;;;;;5070443;28;20139;-87
2023/01/15 06:36:17;;;;;;;9.32;1.45;;;5.40;99.90;;;;;;5070009;28;20136;-86
2023/01/15 06:38:44;;;;;;;5.88;1.63;;;5.90;99.90;;;;;;5073787;28;20037;-86
2023/01/15 06:49:33;;;;;;;5.13;1.85;;;6.00;99.90;;;;;;5073294;28;20055;-87
2023/01/15 06:51:59;;;;;;;9.60;1.70;;;5.10;99.90;;;;;;5073587;28;20098;-87
2023/01/15 06:54:25;;;;;;;5.80;1.10;;;5.10;99.90;;;;;;5073081;28;20048;-86
2023/01/15 06:56:51;;;;;;;12.88;1.70;;;5.10;99.90;;;;;;5073728;28;20053;-87
2023/01/15 06:59:17;;;;;;;8.40;1.48;;;5.80;99.90;;;;;;5073277;28;20394;-86
2023/01/15 07:01:43;;;;;;;;;;;5.70;99.90;;;;;;5073859;28;20084;-86
2023/01/15 07:04:09;;;;;;;10.07;1.58;;;5.60;99.90;;;;;;5072940;28;19974;-86
2023/01/15 07:06:34;;;;;;;7.30;1.15;;;5.40;99.90;;;;;;5073024;28;20148;-86
2023/01/15 07:09:00;;;;;;;12.73;1.30;;;5.00;99.90;;;;;;5056520;28;20051;-86
2023/01/15 07:11:26;;;;;;;4.00;1.30;;;5.00;99.90;;;;;;5072816;28;20045;-86
2023/01/15 07:14:04;;;;;;;7.05;1.70;;;5.40;99.90;;;;;;5057007;28;20509;-87
2023/01/15 07:16:34;;;;;;;8.43;1.52;;;5.00;99.90;;;;;;5072893;28;20520;-86
2023/01/15 07:19:00;;;;;;;4.63;1.40;;;5.00;99.90;;;;;;5073343;28;20033;-86
2023/01/15 07:21:26;;;;;;;3.83;1.02;;;4.90;99.90;;;;;;5072769;28;20084;-86
2023/01/15 07:23:53;;;;;;;8.73;1.70;;;4.90;99.90;;;;;;5072232;28;20087;-86
2023/01/15 07:26:18;;;;;;;11.02;1.60;;;4.90;99.90;;;;;;5055933;28;20139;-86
2023/01/15 07:28:44;;;;;;;9.77;0.95;;;4.90;99.90;;;;;;5073245;28;20139;-86
2023/01/15 07:31:10;;;;;;;9.07;1.65;;;5.00;99.90;;;;;;5072551;28;20044;-87
2023/01/15 07:33:35;;;;;;;7.65;1.67;;;5.50;99.90;;;;;;5055812;28;20051;-87
2023/01/15 07:36:02;;;;;;;9.18;1.20;;;4.80;99.90;;;;;;5056293;28;20047;-86
2023/01/15 07:38:28;;;;;;;3.78;1.00;;;4.80;99.90;;;;;;5071980;28;20064;-87
2023/01/15 07:51:56;;;;;;;9.68;1.77;;;4.80;99.90;;;;;;5072653;28;20052;-86
2023/01/15 07:54:21;;;;;;;18.65;1.60;;;5.50;99.90;;;;;;5055362;28;20044;-86
2023/01/15 07:56:49;;;;;;;5.00;1.42;;;4.70;99.90;;;;;;5072490;28;20572;-87
2023/01/15 07:59:14;;;;;;;7.82;1.40;;;4.90;99.90;;;;;;5072585;28;20067;-86
2023/01/15 08:01:40;;;;;;;4.97;1.50;;;4.70;99.90;;;;;;5038874;28;20037;-87
2023/01/15 08:04:06;;;;;;;9.77;1.38;;;5.50;99.90;;;;;;5072181;28;20040;-86
2023/01/15 08:06:31;;;;;;;3.60;1.10;;;5.50;99.90;;;;;;5055141;28;20044;-87
2023/01/15 08:08:57;;;;;;;4.72;1.15;;;5.50;99.90;;;;;;5071868;28;20048;-86
2023/01/15 08:16:55;;;;;;;9.38;1.52;;;4.70;99.90;;;;;;5057747;28;20106;-81
2023/01/15 08:19:20;;;;;;;3.65;1.50;;;4.70;99.90;;;;;;5054623;28;20044;-87
2023/01/15 08:21:47;;;;;;;8.07;1.52;;;4.80;99.90;;;;;;5054984;28;20056;-87
2023/01/15 08:24:13;;;;;;;;;;;5.50;99.90;;;;;;5071391;28;20056;-87
2023/01/15 08:26:38;;;;;;;3.17;1.30;;;4.80;99.90;;;;;;5072035;28;20077;-87
2023/01/15 08:29:04;;;;;;;5.03;0.95;;;4.90;99.90;;;;;;5072212;28;20149;-84
2023/01/15 08:31:30;;;;;;;7.78;1.65;;;5.50;99.90;;;;;;5071091;28;20052;-88
2023/01/15 08:33:55;;;;;;;3.28;0.85;;;4.90;99.90;;;;;;5055305;28;20044;-87
2023/01/15 08:36:21;;;;;;;11.85;1.60;;;5.10;99.90;;;;;;5054461;28;20045;-89
2023/01/15 08:38:50;;;;;;;13.85;1.35;;;4.90;99.90;;;;;;5071412;28;20137;-87
2023/01/15 08:41:15;;;;;;;5.65;1.15;;;5.20;99.90;;;;;;5071824;28;20045;-87
2023/01/15 08:43:41;;;;;;;14.23;1.50;;;4.90;99.90;;;;;;5071350;28;20166;-86
2023/01/15 08:46:08;;;;;;;4.93;1.45;;;5.80;99.90;;;;;;5071601;28;20040;-86
2023/01/15 08:48:34;;;;;;;7.57;1.10;;;4.90;99.90;;;;;;5071253;28;20048;-87
2023/01/15 08:51:04;;;;;;;;;;;5.30;99.90;;;;;;5072036;28;20094;-86
2023/01/15 08:53:30;;;;;;;6.03;1.10;;;5.00;99.90;;;;;;5071229;28;19974;-86
2023/01/15 08:55:56;;;;;;;8.00;2.17;;;5.30;99.90;;;;;;5055133;28;20052;-86
2023/01/15 08:58:21;;;;;;;5.90;1.13;;;5.10;99.90;;;;;;5054929;28;20052;-87
2023/01/15 09:00:47;;;;;;;7.43;1.10;;;6.30;99.90;;;;;;5071505;28;20049;-87
2023/01/15 09:03:14;;;;;;;3.80;1.25;;;5.40;99.90;;;;;;5071203;28;20123;-87
2023/01/15 09:05:40;;;;;;;7.32;1.42;;;5.50;99.90;;;;;;5054531;28;20048;-86
2023/01/15 09:08:06;;;;;;;7.80;1.85;;;5.90;99.90;;;;;;5071250;28;20067;-87
2023/01/15 09:10:32;;;;;;;;;;;5.30;99.90;;;;;;5054094;28;20048;-86
2023/01/15 09:13:02;;;;;;;2.72;0.90;;;5.20;99.90;;;;;;5071349;28;19927;-85
2023/01/15 09:15:29;;;;;;;6.05;1.33;;;5.00;99.90;;;;;;5054253;28;20715;-85
2023/01/15 09:17:55;;;;;;;7.78;1.58;;;4.90;99.90;;;;;;5071400;28;20071;-85
2023/01/15 09:20:21;;;;;;;7.95;1.13;;;4.90;99.90;;;;;;5070967;28;20056;-86
2023/01/15 09:22:47;;;;;;;3.63;1.20;;;4.30;99.90;;;;;;5070406;28;20091;-86
2023/01/15 09:25:18;;;;;;;3.95;1.17;;;4.20;99.90;;;;;;5070192;28;20141;-83
2023/01/15 09:27:44;;;;;;;4.90;1.02;;;4.00;99.90;;;;;;5070368;28;20061;-84
2023/01/15 09:30:15;;;;;;;5.22;1.33;;;3.70;99.90;;;;;;5070791;28;20052;-83
2023/01/15 09:32:41;;;;;;;1.63;0.63;;;3.20;99.90;;;;;;5069722;28;20048;-85
2023/01/15 09:35:07;;;;;;;4.05;1.10;;;2.90;99.90;;;;;;5070610;28;20363;-84
2023/01/15 09:37:33;;;;;;;;;;;2.30;99.90;;;;;;5070092;28;20041;-84
2023/01/15 09:40:01;;;;;;;1.58;0.90;;;2.10;99.90;;;;;;5070304;28;19927;-84
2023/01/15 09:42:34;;;;;;;3.05;1.00;;;2.30;99.90;;;;;;5070149;28;20048;-86
2023/01/15 09:45:21;;;;;;;6.35;1.15;;;2.10;99.90;;;;;;5070600;28;20049;-83
2023/01/15 09:47:59;;;;;;;12.95;1.77;;;2.20;99.90;;;;;;5069853;28;20045;-86
2023/01/15 09:50:43;;;;;;;9.85;1.65;;;2.30;99.90;;;;;;5070098;28;20063;-86
2023/01/15 09:53:28;;;;;;;4.70;1.42;;;2.30;99.90;;;;;;5052507;28;20056;-83
2023/01/15 09:55:54;;;;;;;15.35;1.85;;;2.40;99.90;;;;;;5070027;28;20432;-84
2023/01/15 09:58:26;;;;;;;11.95;2.03;;;2.60;99.90;;;;;;5053505;28;20074;-84
2023/01/15 10:00:52;;;;;;;7.50;1.95;;;2.80;99.90;;;;;;5070126;28;20053;-85
2023/01/15 10:03:46;;;;;;;9.30;1.80;;;2.90;99.90;;;;;;5071033;28;20098;-84
2023/01/15 10:06:11;;;;;;;9.38;2.65;;;3.00;99.90;;;;;;5071437;28;20252;-85
2023/01/15 10:08:45;;;;;;;5.32;1.30;;;3.80;99.90;;;;;;5070236;28;20098;-84
2023/01/15 10:11:13;;;;;;;4.25;1.40;;;3.30;99.90;;;;;;5071512;28;20036;-84
2023/01/15 10:14:01;;;;;;;8.73;0.95;;;3.30;99.90;;;;;;5074611;28;20048;-84
2023/01/15 10:16:31;;;;;;;6.65;1.45;;;3.30;99.90;;;;;;5074627;28;20462;-87
2023/01/15 10:18:57;;;;;;;11.35;1.60;;;3.40;99.90;;;;;;5074153;28;20045;-84
2023/01/15 10:21:52;;;;;;;8.13;1.30;;;3.40;99.90;;;;;;5074216;28;20049;-87
2023/01/15 10:24:28;;;;;;;4.38;1.10;;;3.40;99.90;;;;;;5073580;28;20068;-81
2023/01/15 10:26:58;;;;;;;10.25;1.50;;;3.50;99.90;;;;;;5073594;28;20087;-85
2023/01/15 10:29:43;;;;;;;8.27;1.48;;;4.30;99.90;;;;;;5040484;28;20106;-83
2023/01/15 10:32:12;;;;;;;3.85;1.25;;;3.80;99.90;;;;;;5074633;28;20370;-84
2023/01/15 10:35:15;;;;;;;5.45;1.27;;;4.20;99.90;;;;;;5073452;28;20052;-82
2023/01/15 10:37:44;;;;;;;3.55;1.27;;;3.80;99.90;;;;;;5072995;28;20048;-82
2023/01/15 10:40:34;;;;;;;7.53;1.90;;;3.90;99.90;;;;;;5073379;28;20091;-82
2023/01/15 10:43:28;;;;;;;7.85;1.50;;;3.90;99.90;;;;;;5056810;28;20044;-82
2023/01/15 10:46:00;;;;;;;9.05;1.40;;;3.90;99.90;;;;;;5073544;28;20124;-81
2023/01/15 10:48:40;;;;;;;14.60;1.77;;;3.90;99.90;;;;;;5073202;28;20052;-83
2023/01/15 10:51:17;;;;;;;7.43;1.40;;;3.90;99.90;;;;;;5073075;28;20052;-83
2023/01/15 10:53:53;;;;;;;9.25;2.75;;;4.10;99.90;;;;;;5072442;28;20615;-84
2023/01/15 10:56:33;;;;;;;10.25;1.42;;;4.00;99.90;;;;;;5073349;28;20565;-83
2023/01/15 10:59:14;;;;;;;5.95;1.48;;;4.10;99.90;;;;;;5073153;28;20056;-83
2023/01/15 11:01:40;;;;;;;6.32;1.60;;;4.20;99.90;;;;;;5073546;28;20052;-83
2023/01/15 11:04:11;;;;;;;5.22;1.45;;;4.30;99.90;;;;;;5072419;28;20109;-85
2023/01/15 11:06:37;;;;;;;10.65;2.80;;;4.50;99.90;;;;;;5072420;28;20040;-83
2023/01/15 11:09:03;;;;;;;8.65;1.63;;;4.50;99.90;;;;;;5072298;28;20044;-84
2023/01/15 11:20:16;;;;;;;16.10;2.75;;;4.70;99.90;;;;;;5072345;28;20053;-84
2023/01/15 11:22:42;;;;;;;5.90;1.48;;;4.70;99.90;;;;;;5072254;28;20044;-83
2023/01/15 11:25:09;;;;;;;6.22;1.23;;;4.60;99.90;;;;;;5070795;28;20109;-83
2023/01/15 11:27:36;;;;;;;15.15;2.00;;;4.70;99.90;;;;;;5072420;28;20078;-89
2023/01/15 11:30:05;;;;;;;9.68;1.67;;;4.60;99.90;;;;;;5071757;28;20048;-84
2023/01/15 11:32:36;;;;;;;3.70;1.30;;;4.50;99.90;;;;;;5071674;28;20044;-84
2023/01/15 11:35:01;;;;;;;7.60;1.13;;;4.50;99.90;;;;;;5071937;28;20051;-84
2023/01/15 11:37:28;;;;;;;6.80;1.33;;;5.00;99.90;;;;;;5072107;28;20044;-84
2023/01/15 11:40:07;;;;;;;9.00;2.22;;;4.70;99.90;;;;;;5072433;28;20205;-83
2023/01/15 11:51:09;;;;;;;5.80;1.17;;;4.80;99.90;;;;;;5072437;28;20071;-83
2023/01/15 11:53:45;;;;;;;5.13;1.20;;;5.00;99.90;;;;;;5055745;28;20045;-83
2023/01/15 11:56:16;;;;;;;2.72;1.15;;;5.10;99.90;;;;;;5055903;28;20056;-84
2023/01/15 11:58:54;;;;;;;4.47;1.10;;;5.30;99.90;;;;;;5072090;28;20080;-82
2023/01/15 12:01:31;;;;;;;5.63;1.27;;;6.10;99.90;;;;;;5072424;28;20056;-84
2023/01/15 12:03:59;;;;;;;6.63;1.48;;;7.10;99.90;;;;;;5072212;28;20052;-85
2023/01/15 12:06:26;;;;;;;7.78;1.60;;;7.60;99.90;;;;;;5073587;28;20135;-85
2023/01/15 12:09:04;;;;;;;7.40;1.60;;;7.70;99.90;;;;;;5055155;28;20440;-83
2023/01/15 12:11:55;;;;;;;3.70;1.17;;;8.10;99.90;;;;;;5072127;28;20117;-84
2023/01/15 12:14:29;;;;;;;8.75;1.45;;;7.90;99.90;;;;;;5072647;28;20048;-86
2023/01/15 12:17:11;;;;;;;17.35;1.95;;;8.30;99.90;;;;;;5071145;28;20158;-86
2023/01/15 12:20:05;;;;;;;6.47;1.30;;;8.40;99.90;;;;;;5070988;28;20056;-88
2023/01/15 12:23:12;;;;;;;14.52;1.67;;;8.10;99.90;;;;;;5070101;28;20059;-88
2023/01/15 12:25:52;;;;;;;10.23;1.65;;;7.70;99.90;;;;;;5042627;28;20390;-86
2023/01/15 12:28:32;;;;;;;11.57;1.77;;;7.80;99.90;;;;;;5070730;28;20075;-87
2023/01/15 12:31:09;;;;;;;10.48;1.60;;;7.70;99.90;;;;;;5070319;28;20056;-86
2023/01/15 12:33:59;;;;;;;7.55;1.83;;;7.30;99.90;;;;;;5070339;28;20052;-87
2023/01/15 12:36:33;;;;;;;4.85;1.33;;;6.90;99.90;;;;;;5070189;28;20222;-88
2023/01/15 12:39:06;;;;;;;7.03;1.95;;;6.60;99.90;;;;;;5069901;28;20520;-86
2023/01/15 12:45:04;;;;;;;5.63;1.40;;;6.40;99.90;;;;;;5031076;28;20663;-88
2023/01/15 12:47:41;;;;;;;12.45;1.60;;;6.10;99.90;;;;;;5070267;28;20393;-85
2023/01/15 12:50:31;;;;;;;11.23;1.60;;;6.00;99.90;;;;;;5070460;28;20131;-87
2023/01/15 12:53:30;;;;;;;7.97;2.03;;;5.90;99.90;;;;;;5070200;28;20101;-86
2023/01/15 12:56:06;;;;;;;10.10;2.15;;;5.90;99.90;;;;;;5070696;28;20440;-84
2023/01/15 12:58:46;;;;;;;10.27;1.80;;;5.80;99.90;;;;;;5071047;28;20048;-86
2023/01/15 13:01:35;;;;;;;7.40;1.40;;;5.40;99.90;;;;;;5070170;28;20075;-88
2023/01/15 13:04:11;;;;;;;9.45;2.33;;;5.30;99.90;;;;;;5069163;28;20449;-87
2023/01/15 13:06:43;;;;;;;7.55;1.92;;;5.20;99.90;;;;;;5069849;28;20418;-86
2023/01/15 13:09:41;;;;;;;13.48;1.98;;;5.30;99.90;;;;;;5069305;28;20048;-86
2023/01/15 13:12:13;;;;;;;5.28;1.48;;;5.30;99.90;;;;;;5069878;28;20044;-87
2023/01/15 13:14:39;;;;;;;11.80;2.70;;;5.20;99.90;;;;;;5070320;28;20366;-84
2023/01/15 13:17:18;;;;;;;8.70;1.88;;;5.20;99.90;;;;;;5052862;28;20047;-85
2023/01/15 13:19:59;;;;;;;7.47;2.25;;;5.50;99.90;;;;;;5070225;28;20077;-88
2023/01/15 13:22:29;;;;;;;9.07;2.20;;;5.20;99.90;;;;;;5071035;28;20127;-86
2023/01/15 13:25:24;;;;;;;7.85;2.00;;;5.30;99.90;;;;;;5052600;28;20060;-87
2023/01/15 13:28:08;;;;;;;8.10;1.75;;;5.60;99.90;;;;;;5070304;28;20044;-86
2023/01/15 13:30:52;;;;;;;12.30;1.65;;;5.50;99.90;;;;;;5070379;28;20058;-84
2023/01/15 13:33:39;;;;;;;6.65;2.03;;;5.60;99.90;;;;;;5069910;28;20056;-86
2023/01/15 13:36:22;;;;;;;5.07;1.70;;;5.60;99.90;;;;;;5069525;28;20059;-85
2023/01/15 13:38:53;;;;;;;7.43;1.65;;;5.50;99.90;;;;;;5052662;28;20063;-87
2023/01/15 13:44:18;;;;;;;9.15;1.13;;;5.50;99.90;;;;;;5069227;28;20060;-86
2023/01/15 13:46:45;;;;;;;;;;;5.80;99.90;;;;;;5071196;28;20048;-85
2023/01/15 13:49:24;;;;;;;16.73;1.67;;;5.90;99.90;;;;;;5073554;28;19928;-89
2023/01/15 13:51:50;;;;;;;4.78;1.48;;;6.40;99.90;;;;;;5073325;28;20071;-85
2023/01/15 13:54:20;;;;;;;11.60;1.67;;;6.70;99.90;;;;;;5073897;28;20498;-85
2023/01/15 13:56:46;;;;;;;3.78;1.75;;;6.50;99.90;;;;;;5074174;28;20131;-85
2023/01/15 13:59:30;;;;;;;8.77;1.25;;;6.40;99.90;;;;;;5056839;28;20131;-86
2023/01/15 14:01:56;;;;;;;4.72;1.42;;;6.30;99.90;;;;;;5056788;28;20051;-86
2023/01/15 14:04:36;;;;;;;8.70;1.40;;;6.70;99.90;;;;;;5073952;28;20044;-86
2023/01/15 14:07:01;;;;;;;2.70;1.20;;;6.70;99.90;;;;;;5073692;28;20478;-87
2023/01/15 14:09:30;;;;;;;4.32;1.13;;;6.60;99.90;;;;;;5074485;28;20041;-85
2023/01/15 14:12:05;;;;;;;4.47;1.33;;;6.50;99.90;;;;;;5073591;28;20044;-87
2023/01/15 14:14:51;;;;;;;4.25;1.45;;;6.40;99.90;;;;;;5074149;28;20064;-86
2023/01/15 14:18:00;;;;;;;4.80;2.10;;;6.40;99.90;;;;;;5057252;28;20056;-86